Bookmark and Share
Track history (hours):
 

Contargo III

Last reported at 2014-Apr-17 21:33 UTC. Time now 2014-Apr-17 21:58 UTC.
Position N 51°58' E 004°03'.

Length 109 m.

Type: Ship. MMSI: 244670090.

NotesDate/timePositionNaut miles runAvg speedWind from/ knotsBaromVisibWave heightAir tempDewpointWater temp
2014-Apr-17 21:33N 51°58' E 004°03'2 2.1
2014-Apr-17 20:27N 51°56' E 004°03'1 0.9
2014-Apr-17 19:33N 51°57' E 004°02'0 0.0
2014-Apr-17 18:31N 51°57' E 004°02'0 0.0
2014-Apr-17 17:30N 51°57' E 004°02'0 0.0
2014-Apr-17 16:32N 51°57' E 004°02'0 0.0
2014-Apr-17 15:32N 51°57' E 004°02'0 0.0
2014-Apr-17 14:33N 51°57' E 004°02'0 0.0
2014-Apr-17 13:33N 51°57' E 004°02'0 0.0
2014-Apr-17 12:31N 51°57' E 004°02'0 0.0
2014-Apr-17 11:28N 51°57' E 004°02'1 1.1
2014-Apr-17 10:31N 51°57' E 004°03'0 0.0
2014-Apr-17 09:28N 51°57' E 004°03'4 4.8
2014-Apr-17 08:33N 51°56' E 004°09'5 4.9
2014-Apr-17 07:30N 51°52' E 004°15'3 3.4
2014-Apr-17 06:33N 51°54' E 004°20'4 1.8
2014-Apr-17 04:29N 51°53' E 004°26'1 1.5
2014-Apr-17 03:33N 51°53' E 004°24'0 0.1
2014-Apr-17 02:33N 51°53' E 004°24'0 0.0
2014-Apr-17 01:33N 51°53' E 004°24'0 0.0
2014-Apr-17 00:33N 51°53' E 004°24'2 2.3
2014-Apr-16 23:33N 51°54' E 004°27'6 5.6
2014-Apr-16 22:33N 51°54' E 004°36'6 5.6
2014-Apr-16 21:33N 51°48' E 004°38'7 6.5
2014-Apr-16 20:33N 51°42' E 004°36'1 0.9
2014-Apr-16 19:33N 51°41' E 004°36'0 0.1
2014-Apr-16 18:32N 51°41' E 004°36'0 0.1
2014-Apr-16 17:33N 51°41' E 004°36'0 0.0
2014-Apr-16 16:33N 51°41' E 004°36'0 0.1
2014-Apr-16 15:29N 51°41' E 004°36'6 5.5
2014-Apr-16 14:21N 51°42' E 004°26'9 4.9
2014-Apr-16 12:33N 51°38' E 004°13'12 5.0
2014-Apr-16 10:11N 51°26' E 004°14'5 6.6
2014-Apr-16 09:24N 51°21' E 004°18'4 5.2
2014-Apr-16 08:33N 51°17' E 004°20'3 3.4
2014-Apr-16 07:33N 51°15' E 004°25'1 0.6
2014-Apr-16 06:33N 51°15' E 004°24'4 3.9
2014-Apr-16 05:33N 51°18' E 004°20'1 1.5
2014-Apr-16 04:33N 51°17' E 004°21'3 3.2
2014-Apr-16 03:33N 51°18' E 004°16'1 0.9
2014-Apr-16 02:33N 51°17' E 004°16'0 0.0
2014-Apr-16 01:34N 51°17' E 004°16'1 0.8
2014-Apr-16 00:33N 51°18' E 004°16'0 0.0
2014-Apr-15 23:33N 51°18' E 004°16'0 0.0
2014-Apr-15 22:33N 51°18' E 004°16'0 0.0
2014-Apr-15 21:31N 51°18' E 004°16'0 0.0
2014-Apr-15 20:33N 51°18' E 004°16'0 0.0
2014-Apr-15 19:33N 51°18' E 004°16'2 2.4
2014-Apr-15 18:33N 51°20' E 004°16'0 0.2
2014-Apr-15 17:33N 51°20' E 004°16'0 0.0
2014-Apr-15 16:33N 51°20' E 004°16'0 0.0
2014-Apr-15 15:32N 51°20' E 004°16'3 2.8
2014-Apr-15 14:33N 51°18' E 004°16'3 1.5
2014-Apr-15 12:34N 51°21' E 004°17'1 0.5
2014-Apr-15 11:34N 51°21' E 004°18'0 0.0
2014-Apr-15 10:33N 51°21' E 004°18'2 2.1
2014-Apr-15 09:34N 51°19' E 004°20'0 0.0
2014-Apr-15 08:33N 51°19' E 004°20'0 0.0
2014-Apr-15 07:34N 51°19' E 004°20'1 0.5
2014-Apr-15 06:31N 51°19' E 004°19'0 0.0
2014-Apr-15 05:32N 51°19' E 004°19'3 1.5
2014-Apr-15 03:34N 51°17' E 004°22'0 0.0
2014-Apr-15 02:34N 51°17' E 004°22'0 0.0
2014-Apr-15 01:34N 51°17' E 004°22'0 0.0
2014-Apr-15 00:34N 51°17' E 004°22'0 0.0
2014-Apr-14 23:34N 51°17' E 004°22'0 0.0
2014-Apr-14 22:34N 51°17' E 004°22'0 0.0
2014-Apr-14 21:34N 51°17' E 004°22'0 0.0
2014-Apr-14 20:34N 51°17' E 004°22'0 0.0
2014-Apr-14 19:34N 51°17' E 004°22'0 0.0
2014-Apr-14 18:34N 51°17' E 004°22'1 1.3
2014-Apr-14 17:34N 51°17' E 004°20'8 7.6
2014-Apr-14 16:30N 51°25' E 004°14'3 2.9
2014-Apr-14 15:30N 51°28' E 004°14'12 6.2
2014-Apr-14 13:32N 51°39' E 004°19'7 3.6
2014-Apr-14 11:34N 51°42' E 004°30'8 7.6
2014-Apr-14 10:34N 51°44' E 004°41'7 7.3
2014-Apr-14 09:34N 51°48' E 004°51'7 7.3
2014-Apr-14 08:34N 51°49' E 005°03'8 7.9
2014-Apr-14 07:33N 51°49' E 005°16'7 6.7
2014-Apr-14 06:34N 51°52' E 005°25'8 8.4
2014-Apr-14 05:33N 51°54' E 005°39'54 6.7
2014-Apr-13 21:30N 51°17' E 006°42'5 5.4
2014-Apr-13 20:33N 51°12' E 006°44'19 6.1
2014-Apr-13 17:30N 50°55' E 006°58'104 6.1
2014-Apr-13 00:24N 49°28' E 008°27'5 6.4
2014-Apr-12 23:34N 49°23' E 008°30'7 6.7
2014-Apr-12 22:33N 49°16' E 008°27'8 8.3
2014-Apr-12 21:33N 49°09' E 008°22'9 9.0
2014-Apr-12 20:33N 49°00' E 008°17'9 9.0
2014-Apr-12 19:33N 48°53' E 008°08'4 4.1
2014-Apr-12 18:33N 48°50' E 008°07'5 5.0
2014-Apr-12 17:33N 48°46' E 008°01'7 6.2
2014-Apr-12 16:30N 48°41' E 007°55'63 2.6
2014-Apr-11 16:20N 47°40' E 007°31'1 1.7
2014-Apr-11 15:33N 47°39' E 007°32'2 2.5
2014-Apr-11 14:33N 47°37' E 007°34'1 1.1
2014-Apr-11 13:33N 47°36' E 007°35'0 0.0
2014-Apr-11 12:31N 47°36' E 007°35'0 0.0
2014-Apr-11 11:34N 47°36' E 007°35'0 0.0
2014-Apr-11 10:33N 47°36' E 007°35'0 0.0
2014-Apr-11 09:33N 47°36' E 007°35'0 0.0
2014-Apr-11 08:33N 47°36' E 007°35'0 0.0
2014-Apr-11 07:33N 47°36' E 007°35'0 0.0
2014-Apr-11 06:33N 47°36' E 007°35'0 0.0
2014-Apr-11 05:33N 47°36' E 007°35'0 0.0
2014-Apr-11 04:33N 47°36' E 007°35'0 0.0
2014-Apr-11 03:33N 47°36' E 007°35'0 0.0
2014-Apr-11 02:33N 47°36' E 007°35'0 0.0
2014-Apr-11 01:33N 47°36' E 007°35'0 0.0
2014-Apr-11 00:33N 47°36' E 007°35'0 0.0
2014-Apr-10 23:33N 47°36' E 007°35'0 0.0
2014-Apr-10 22:34N 47°36' E 007°35'0 0.0
2014-Apr-10 21:34N 47°36' E 007°35'0 0.0
2014-Apr-10 20:33N 47°36' E 007°35'1 1.3
2014-Apr-10 19:34N 47°35' E 007°36'0 0.0
2014-Apr-10 18:34N 47°35' E 007°36'0 0.1
2014-Apr-10 17:34N 47°35' E 007°36'0 0.0
2014-Apr-10 16:33N 47°35' E 007°36'0 0.0
2014-Apr-10 15:33N 47°35' E 007°36'0 0.0
2014-Apr-10 14:33N 47°35' E 007°36'0 0.0
2014-Apr-10 13:33N 47°35' E 007°36'0 0.0
2014-Apr-10 12:33N 47°35' E 007°36'0 0.0
2014-Apr-10 11:33N 47°35' E 007°36'0 0.0
2014-Apr-10 10:33N 47°35' E 007°36'0 0.0
2014-Apr-10 09:33N 47°35' E 007°36'0 0.0
2014-Apr-10 08:33N 47°35' E 007°36'0 0.0
2014-Apr-10 07:34N 47°35' E 007°36'0 0.0
2014-Apr-10 06:33N 47°35' E 007°36'1 1.2
2014-Apr-10 05:33N 47°36' E 007°35'1 1.2
2014-Apr-10 04:34N 47°35' E 007°36'0 0.0
2014-Apr-10 03:33N 47°35' E 007°36'0 0.0
2014-Apr-10 02:33N 47°35' E 007°36'0 0.0
2014-Apr-10 01:33N 47°35' E 007°36'0 0.0
2014-Apr-10 00:33N 47°35' E 007°36'0 0.0
2014-Apr-09 23:33N 47°35' E 007°36'0 0.0
2014-Apr-09 22:33N 47°35' E 007°36'0 0.0
2014-Apr-09 21:33N 47°35' E 007°36'0 0.0
2014-Apr-09 20:33N 47°35' E 007°36'0 0.0
2014-Apr-09 19:33N 47°35' E 007°36'0 0.0
2014-Apr-09 18:34N 47°35' E 007°36'0 0.0
2014-Apr-09 17:33N 47°35' E 007°36'0 0.2
2014-Apr-09 16:33N 47°35' E 007°36'0 0.0
2014-Apr-09 15:34N 47°35' E 007°36'0 0.0
2014-Apr-09 14:34N 47°35' E 007°36'0 0.0
2014-Apr-09 13:33N 47°35' E 007°36'0 0.0
2014-Apr-09 12:34N 47°35' E 007°36'0 0.0
2014-Apr-09 11:33N 47°35' E 007°36'0 0.0
2014-Apr-09 10:33N 47°35' E 007°36'1 1.4
2014-Apr-09 09:33N 47°36' E 007°35'0 0.0
2014-Apr-09 08:32N 47°36' E 007°35'0 0.0
2014-Apr-09 07:33N 47°36' E 007°35'0 0.0
2014-Apr-09 06:32N 47°36' E 007°35'0 0.2
2014-Apr-09 05:32N 47°36' E 007°35'0 0.0
2014-Apr-09 04:33N 47°36' E 007°35'0 0.0
2014-Apr-09 03:33N 47°36' E 007°35'0 0.0
2014-Apr-09 02:34N 47°36' E 007°35'0 0.0
2014-Apr-09 01:33N 47°36' E 007°35'0 0.0
2014-Apr-09 00:33N 47°36' E 007°35'0 0.0
2014-Apr-08 23:33N 47°36' E 007°35'4 3.6
2014-Apr-08 22:34N 47°39' E 007°32'  

Dump ship's entire track history

sailing weather and tide predictions

Contargo III — PD5101 — position and weather